createdAt,value
2022-10-28T00:00:55.604Z,4.70
2022-10-28T00:03:23.957Z,4.83
2022-10-28T00:05:51.531Z,4.43
2022-10-28T00:08:20.951Z,4.90
2022-10-28T00:10:48.590Z,4.60
2022-10-28T00:13:16.650Z,4.80
2022-10-28T00:15:44.283Z,5.30
2022-10-28T00:18:12.351Z,4.10
2022-10-28T00:20:40.125Z,5.07
2022-10-28T00:23:07.726Z,4.77
2022-10-28T00:25:37.324Z,5.47
2022-10-28T00:28:05.146Z,5.27
2022-10-28T00:30:33.251Z,4.80
2022-10-28T00:33:01.407Z,5.20
2022-10-28T00:35:29.113Z,4.90
2022-10-28T00:37:56.804Z,5.33
2022-10-28T00:40:24.533Z,4.60
2022-10-28T00:42:56.287Z,5.90
2022-10-28T00:45:26.086Z,5.90
2022-10-28T00:47:57.772Z,4.30
2022-10-28T00:50:44.732Z,4.83
2022-10-28T00:53:17.406Z,5.43
2022-10-28T00:55:46.570Z,5.47
2022-10-28T00:58:16.882Z,4.97
2022-10-28T01:00:45.160Z,5.83
2022-10-28T01:03:13.978Z,5.43
2022-10-28T01:05:43.801Z,4.87
2022-10-28T01:08:12.296Z,5.10
2022-10-28T01:10:58.577Z,5.10
2022-10-28T01:13:40.334Z,5.13
2022-10-28T01:16:22.183Z,5.37
2022-10-28T01:19:02.767Z,4.50
2022-10-28T01:22:08.809Z,5.40
2022-10-28T01:24:54.617Z,5.10
2022-10-28T01:27:43.223Z,4.70
2022-10-28T01:30:16.932Z,5.60
2022-10-28T01:33:28.232Z,4.67
2022-10-28T01:36:03.738Z,4.60
2022-10-28T01:38:39.470Z,5.30
2022-10-28T01:41:13.735Z,4.77
2022-10-28T01:43:48.648Z,4.87
2022-10-28T01:46:23.048Z,5.20
2022-10-28T01:48:56.140Z,5.10
2022-10-28T01:51:29.598Z,6.07
2022-10-28T01:54:02.318Z,6.70
2022-10-28T01:56:33.848Z,5.60
2022-10-28T01:59:04.846Z,5.67
2022-10-28T02:01:34.190Z,5.50
2022-10-28T02:04:04.203Z,5.33
2022-10-28T02:06:35.338Z,6.10
2022-10-28T02:09:16.974Z,5.40
2022-10-28T02:12:01.993Z,5.57
2022-10-28T02:14:44.314Z,5.47
2022-10-28T02:17:22.672Z,5.80
2022-10-28T02:20:02.080Z,5.20
2022-10-28T02:22:33.768Z,5.67
2022-10-28T02:25:09.341Z,5.40
2022-10-28T02:27:44.390Z,5.23
2022-10-28T02:30:16.517Z,5.27
2022-10-28T02:32:51.352Z,5.53
2022-10-28T02:35:28.317Z,8.13
2022-10-28T02:38:00.150Z,6.20
2022-10-28T02:40:31.665Z,5.30
2022-10-28T02:43:03.563Z,4.63
2022-10-28T02:45:39.472Z,5.73
2022-10-28T02:48:11.103Z,5.37
2022-10-28T02:50:47.126Z,5.50
2022-10-28T02:53:20.486Z,5.20
2022-10-28T02:55:55.725Z,4.50
2022-10-28T02:58:23.564Z,4.60
2022-10-28T03:00:52.293Z,5.10
2022-10-28T03:03:20.609Z,4.80
2022-10-28T03:05:50.878Z,6.23
2022-10-28T03:08:18.914Z,4.70
2022-10-28T03:10:46.955Z,5.23
2022-10-28T03:13:14.902Z,5.43
2022-10-28T03:15:43.801Z,4.47
2022-10-28T03:18:11.860Z,5.37
2022-10-28T03:20:39.851Z,5.93
2022-10-28T03:23:09.037Z,6.13
2022-10-28T03:25:39.647Z,4.70
2022-10-28T03:28:07.460Z,5.23
2022-10-28T03:30:35.099Z,5.40
2022-10-28T03:33:03.537Z,5.73
2022-10-28T03:35:31.160Z,4.87
2022-10-28T03:37:59.604Z,5.23
2022-10-28T03:40:28.671Z,4.90
2022-10-28T03:42:56.661Z,4.90
2022-10-28T03:45:24.574Z,5.17
2022-10-28T03:47:52.868Z,5.00
2022-10-28T03:50:21.197Z,4.83
2022-10-28T03:52:48.830Z,4.77
2022-10-28T03:55:17.001Z,5.43
2022-10-28T03:57:45.970Z,4.73
2022-10-28T04:00:16.129Z,5.00
2022-10-28T04:02:43.798Z,4.83
2022-10-28T04:05:11.794Z,4.87
2022-10-28T04:07:40.001Z,4.70
2022-10-28T04:10:08.073Z,4.80
2022-10-28T04:12:36.084Z,5.40
2022-10-28T04:15:05.925Z,4.87
2022-10-28T04:17:35.221Z,5.13
2022-10-28T04:20:02.872Z,4.93
2022-10-28T04:22:30.767Z,5.20
2022-10-28T04:24:58.408Z,4.93
2022-10-28T04:27:26.839Z,5.60
2022-10-28T04:29:54.544Z,5.83
2022-10-28T04:32:23.518Z,5.63
2022-10-28T04:34:51.509Z,6.40
2022-10-28T04:37:20.535Z,5.10
2022-10-28T04:39:49.128Z,6.17
2022-10-28T04:42:16.876Z,5.90
2022-10-28T04:44:45.580Z,4.70
2022-10-28T04:47:13.915Z,5.93
2022-10-28T04:49:42.923Z,5.50
2022-10-28T04:52:14.805Z,7.23
2022-10-28T04:54:43.569Z,6.43
2022-10-28T04:57:11.731Z,6.53
2022-10-28T04:59:39.401Z,7.10
2022-10-28T05:02:08.036Z,7.80
2022-10-28T05:04:35.775Z,7.07
2022-10-28T05:07:05.364Z,6.20
2022-10-28T05:09:33.075Z,6.87
2022-10-28T05:12:00.859Z,6.33
2022-10-28T05:14:28.624Z,6.13
2022-10-28T05:16:56.662Z,6.57
2022-10-28T05:19:24.800Z,5.73
2022-10-28T05:21:52.463Z,5.60
2022-10-28T05:24:22.164Z,6.03
2022-10-28T05:26:49.838Z,5.43
2022-10-28T05:29:19.831Z,5.20
2022-10-28T05:31:47.795Z,5.93
2022-10-28T05:34:15.830Z,6.00
2022-10-28T05:36:43.874Z,6.20
2022-10-28T05:39:12.689Z,6.00
2022-10-28T05:41:42.252Z,6.23
2022-10-28T05:44:10.360Z,6.13
2022-10-28T05:46:38.395Z,5.67
2022-10-28T05:49:06.080Z,6.20
2022-10-28T05:51:34.470Z,5.67
2022-10-28T05:54:02.110Z,6.43
2022-10-28T05:56:30.162Z,6.13
2022-10-28T05:58:59.243Z,6.20
2022-10-28T06:01:27.497Z,6.70
2022-10-28T06:03:55.264Z,6.23
2022-10-28T06:06:23.436Z,5.67
2022-10-28T06:08:51.417Z,5.73
2022-10-28T06:11:17.795Z,6.50
2022-10-28T06:13:46.245Z,7.60
2022-10-28T06:16:15.223Z,5.80
2022-10-28T06:18:42.902Z,7.20
2022-10-28T06:21:10.527Z,7.13
2022-10-28T06:23:38.497Z,6.80
2022-10-28T06:26:06.172Z,8.43
2022-10-28T06:28:34.483Z,7.07
2022-10-28T06:31:03.695Z,7.80
2022-10-28T06:33:32.911Z,6.90
2022-10-28T06:36:01.990Z,6.90
2022-10-28T06:38:29.889Z,7.87
2022-10-28T06:40:59.057Z,6.30
2022-10-28T06:43:27.054Z,6.87
2022-10-28T06:45:56.267Z,6.50
2022-10-28T06:48:25.653Z,8.53
2022-10-28T06:50:57.972Z,6.90
2022-10-28T06:53:26.067Z,7.17
2022-10-28T06:55:54.872Z,6.90
2022-10-28T06:58:22.914Z,6.80
2022-10-28T07:00:51.306Z,8.10
2022-10-28T07:03:19.819Z,9.07
2022-10-28T07:05:49.139Z,7.97
2022-10-28T07:08:18.636Z,8.10
2022-10-28T07:10:54.135Z,7.43
2022-10-28T07:13:21.926Z,8.03
2022-10-28T07:15:52.783Z,7.90
2022-10-28T07:18:20.766Z,8.50
2022-10-28T07:20:48.611Z,7.87
2022-10-28T07:23:16.837Z,7.60
2022-10-28T07:28:22.373Z,7.90
2022-10-28T07:30:50.116Z,8.03
2022-10-28T07:33:18.358Z,7.77
2022-10-28T07:35:46.405Z,8.17
2022-10-28T07:38:14.219Z,8.07
2022-10-28T07:40:42.311Z,6.90
2022-10-28T07:43:11.837Z,6.90
2022-10-28T07:45:39.787Z,6.53
2022-10-28T07:48:08.534Z,9.90
2022-10-28T07:50:36.289Z,7.80
2022-10-28T07:53:04.971Z,7.97
2022-10-28T07:55:32.746Z,10.73
2022-10-28T07:58:00.742Z,8.57
2022-10-28T08:00:29.862Z,11.00
2022-10-28T08:02:57.492Z,10.10
2022-10-28T08:05:25.834Z,10.30
2022-10-28T08:07:53.738Z,9.80
2022-10-28T08:10:21.520Z,10.27
2022-10-28T08:12:49.096Z,10.47
2022-10-28T08:15:18.281Z,9.10
2022-10-28T08:17:52.391Z,9.67
2022-10-28T08:20:20.995Z,8.43
2022-10-28T08:22:49.083Z,8.80
2022-10-28T08:25:17.174Z,8.73
2022-10-28T08:27:45.010Z,9.10
2022-10-28T08:30:13.855Z,9.37
2022-10-28T08:32:41.532Z,8.37
2022-10-28T08:35:11.555Z,9.57
2022-10-28T08:37:39.196Z,9.27
2022-10-28T08:40:11.186Z,7.53
2022-10-28T08:42:45.762Z,7.90
2022-10-28T08:45:26.463Z,9.70
2022-10-28T08:48:10.148Z,8.10
2022-10-28T08:50:47.617Z,7.73
2022-10-28T08:53:21.027Z,7.93
2022-10-28T08:55:51.157Z,7.00
2022-10-28T08:58:24.037Z,8.03
2022-10-28T09:00:54.030Z,6.63
2022-10-28T09:03:25.483Z,6.67
2022-10-28T09:06:01.804Z,7.40
2022-10-28T09:08:34.612Z,6.23
2022-10-28T09:11:30.137Z,7.87
2022-10-28T09:14:15.989Z,8.07
2022-10-28T09:16:48.178Z,8.77
2022-10-28T09:19:24.308Z,6.97
2022-10-28T09:22:02.686Z,7.07
2022-10-28T09:24:43.427Z,7.40
2022-10-28T09:27:20.807Z,6.30
2022-10-28T09:29:58.931Z,7.60
2022-10-28T09:32:37.640Z,7.50
2022-10-28T09:35:09.838Z,6.20
2022-10-28T09:37:44.206Z,6.13
2022-10-28T09:40:18.365Z,5.87
2022-10-28T09:42:57.571Z,5.57
2022-10-28T09:45:29.347Z,5.60
2022-10-28T09:48:02.719Z,6.43
2022-10-28T09:50:33.617Z,5.47
2022-10-28T09:53:10.738Z,5.20
2022-10-28T09:55:38.423Z,6.20
2022-10-28T09:58:07.430Z,7.60
2022-10-28T10:00:35.120Z,6.77
2022-10-28T10:03:02.909Z,8.23
2022-10-28T10:05:34.399Z,8.67
2022-10-28T10:08:06.530Z,8.83
2022-10-28T10:10:44.803Z,8.90
2022-10-28T10:13:14.348Z,10.90
2022-10-28T10:15:46.630Z,11.30
2022-10-28T10:18:17.320Z,11.60
2022-10-28T10:20:51.425Z,9.23
2022-10-28T10:32:05.564Z,8.03
2022-10-28T10:34:34.386Z,8.30
2022-10-28T10:39:38.097Z,9.20
2022-10-28T10:42:17.696Z,5.97
2022-10-28T10:44:45.598Z,5.93
2022-10-28T10:47:33.376Z,6.50
2022-10-28T10:50:25.338Z,5.87
2022-10-28T10:52:57.280Z,5.93
2022-10-28T10:55:33.665Z,5.83
2022-10-28T10:58:02.591Z,5.83
2022-10-28T11:00:34.945Z,5.90
2022-10-28T11:03:06.143Z,4.70
2022-10-28T11:05:38.056Z,5.53
2022-10-28T11:08:08.044Z,5.80
2022-10-28T11:10:36.676Z,4.83
2022-10-28T11:13:07.078Z,5.10
2022-10-28T11:15:35.552Z,5.70
2022-10-28T11:18:17.217Z,6.37
2022-10-28T11:20:54.926Z,5.80
2022-10-28T11:23:37.114Z,5.90
2022-10-28T11:26:08.904Z,5.37
2022-10-28T11:28:47.512Z,5.00
2022-10-28T11:31:34.708Z,5.23
2022-10-28T11:34:21.119Z,4.73
2022-10-28T11:37:01.024Z,4.30
2022-10-28T11:43:16.068Z,5.00
2022-10-28T11:45:51.603Z,5.07
2022-10-28T11:48:35.698Z,5.90
2022-10-28T11:51:36.498Z,4.67
2022-10-28T11:59:02.104Z,5.33
2022-10-28T12:05:35.658Z,5.47
2022-10-28T12:08:54.699Z,3.73
2022-10-28T12:14:59.146Z,4.30
2022-10-28T12:28:36.275Z,4.47
2022-10-28T12:31:12.091Z,5.70
2022-10-28T12:34:25.151Z,5.90
2022-10-28T12:37:48.709Z,4.73
2022-10-28T12:40:26.171Z,4.77
2022-10-28T12:43:00.361Z,4.50
2022-10-28T12:45:33.013Z,4.60
2022-10-28T12:48:06.175Z,4.50
2022-10-28T12:50:42.306Z,4.20
2022-10-28T12:53:29.928Z,3.30
2022-10-28T12:56:01.867Z,4.17
2022-10-28T12:58:36.421Z,4.23
2022-10-28T13:01:12.867Z,3.50
2022-10-28T13:04:01.082Z,3.60
2022-10-28T13:07:07.719Z,3.50
2022-10-28T13:10:13.310Z,2.70
2022-10-28T13:13:01.034Z,3.53
2022-10-28T13:16:15.996Z,3.80
2022-10-28T13:19:42.585Z,3.20
2022-10-28T13:22:45.872Z,3.70
2022-10-28T13:25:47.295Z,3.73
2022-10-28T13:28:24.246Z,3.90
2022-10-28T13:30:58.932Z,3.33
2022-10-28T13:33:29.617Z,3.57
2022-10-28T13:36:12.262Z,3.90
2022-10-28T13:38:42.061Z,3.70
2022-10-28T13:41:29.045Z,3.43
2022-10-28T13:44:28.323Z,3.63
2022-10-28T13:47:25.026Z,3.53
2022-10-28T13:50:37.206Z,3.17
2022-10-28T13:53:41.421Z,3.07
2022-10-28T13:56:29.357Z,3.13
2022-10-28T13:59:01.161Z,4.27
2022-10-28T14:02:01.398Z,4.60
2022-10-28T14:04:38.435Z,3.50
2022-10-28T14:07:21.595Z,5.17
2022-10-28T14:09:53.795Z,6.17
2022-10-28T14:12:35.906Z,6.13
2022-10-28T14:15:08.934Z,3.90
2022-10-28T14:17:40.738Z,4.40
2022-10-28T14:20:26.653Z,4.40
2022-10-28T14:22:55.455Z,4.60
2022-10-28T14:26:15.754Z,4.97
2022-10-28T14:29:05.562Z,3.80
2022-10-28T14:31:42.700Z,3.80
2022-10-28T14:34:44.311Z,5.17
2022-10-28T14:37:49.887Z,4.20
2022-10-28T14:40:31.052Z,4.47
2022-10-28T14:43:11.825Z,3.77
2022-10-28T14:45:54.770Z,4.80
2022-10-28T14:48:43.865Z,4.73
2022-10-28T14:51:16.160Z,5.00
2022-10-28T14:53:45.944Z,4.57
2022-10-28T14:58:57.659Z,4.87
2022-10-28T15:01:28.040Z,4.40
2022-10-28T15:04:00.120Z,4.50
2022-10-28T15:06:33.157Z,5.10
2022-10-28T15:09:08.215Z,4.60
2022-10-28T15:11:36.157Z,4.67
2022-10-28T15:14:15.980Z,4.47
2022-10-28T15:16:49.379Z,5.30
2022-10-28T15:19:20.600Z,4.87
2022-10-28T15:22:13.635Z,5.23
2022-10-28T15:24:44.641Z,4.60
2022-10-28T15:27:15.268Z,4.93
2022-10-28T15:29:43.678Z,5.07
2022-10-28T15:32:16.142Z,5.27
2022-10-28T15:34:44.755Z,5.33
2022-10-28T15:37:18.040Z,3.90
2022-10-28T15:39:46.874Z,6.50
2022-10-28T15:42:31.554Z,5.40
2022-10-28T15:45:00.003Z,5.73
2022-10-28T15:47:34.213Z,6.30
2022-10-28T15:50:06.574Z,4.43
2022-10-28T15:52:43.509Z,4.00
2022-10-28T15:58:36.534Z,3.50
2022-10-28T16:01:05.910Z,3.30
2022-10-28T16:03:44.034Z,3.30
2022-10-28T16:06:23.652Z,4.53
2022-10-28T16:09:02.820Z,3.90
2022-10-28T16:11:31.750Z,4.27
2022-10-28T16:14:02.197Z,2.80
2022-10-28T16:16:32.524Z,4.00
2022-10-28T16:19:07.841Z,6.80
2022-10-28T16:21:37.024Z,7.10
2022-10-28T16:24:06.575Z,5.13
2022-10-28T16:26:34.214Z,5.67
2022-10-28T16:29:01.848Z,4.20
2022-10-28T16:31:31.678Z,4.90
2022-10-28T16:34:00.085Z,4.90
2022-10-28T16:36:28.170Z,6.00
2022-10-28T16:38:55.942Z,6.67
2022-10-28T16:41:25.619Z,6.33
2022-10-28T16:43:53.331Z,4.80
2022-10-28T16:46:21.170Z,6.03
2022-10-28T16:48:48.832Z,8.40
2022-10-28T16:51:17.643Z,4.77
2022-10-28T16:53:47.331Z,5.10
2022-10-28T16:56:15.760Z,8.13
2022-10-28T16:58:46.228Z,7.23
2022-10-28T17:01:18.871Z,8.33
2022-10-28T17:03:46.624Z,6.30
2022-10-28T17:06:14.261Z,10.57
2022-10-28T17:09:02.038Z,7.33
2022-10-28T17:11:32.581Z,6.53
2022-10-28T17:14:01.603Z,6.87
2022-10-28T17:16:29.326Z,4.50
2022-10-28T17:18:57.072Z,4.30
2022-10-28T17:21:24.892Z,4.37
2022-10-28T17:23:52.701Z,4.70
2022-10-28T17:26:20.388Z,4.33
2022-10-28T17:28:52.040Z,4.20
2022-10-28T17:31:24.761Z,4.57
2022-10-28T17:33:54.628Z,5.80
2022-10-28T17:36:23.565Z,4.70
2022-10-28T17:38:51.227Z,4.83
2022-10-28T17:41:19.290Z,6.03
2022-10-28T17:43:47.063Z,4.80
2022-10-28T17:46:15.257Z,4.63
2022-10-28T17:48:44.256Z,6.20
2022-10-28T17:51:12.319Z,4.70
2022-10-28T17:53:40.065Z,4.83
2022-10-28T17:56:08.905Z,5.33
2022-10-28T17:58:37.042Z,5.87
2022-10-28T18:01:07.201Z,4.40
2022-10-28T18:03:38.964Z,3.90
2022-10-28T18:06:11.841Z,4.90
2022-10-28T18:08:41.686Z,5.00
2022-10-28T18:11:11.924Z,5.40
2022-10-28T18:13:41.390Z,4.73
2022-10-28T18:16:11.672Z,8.10
2022-10-28T18:18:42.472Z,6.90
2022-10-28T18:21:13.529Z,7.30
2022-10-28T18:23:42.121Z,5.67
2022-10-28T18:26:13.055Z,7.47
2022-10-28T18:28:42.308Z,38.30
2022-10-28T18:31:12.584Z,19.20
2022-10-28T18:33:40.939Z,15.97
2022-10-28T18:36:13.266Z,14.13
2022-10-28T18:38:41.745Z,11.03
2022-10-28T18:41:11.800Z,6.50
2022-10-28T18:43:39.666Z,6.87
2022-10-28T18:46:07.676Z,7.20
2022-10-28T18:48:35.409Z,6.60
2022-10-28T18:51:06.677Z,6.80
2022-10-28T18:53:39.013Z,7.07
2022-10-28T18:56:08.123Z,7.87
2022-10-28T18:58:36.120Z,8.20
2022-10-28T19:01:08.941Z,6.03
2022-10-28T19:03:37.549Z,7.30
2022-10-28T19:06:07.981Z,8.27
2022-10-28T19:21:18.419Z,7.97
2022-10-28T19:23:46.332Z,6.00
2022-10-28T19:26:14.564Z,6.43
2022-10-28T19:28:43.801Z,7.30
2022-10-28T19:31:13.887Z,7.20
2022-10-28T19:33:43.345Z,6.67
2022-10-28T19:36:17.626Z,7.60
2022-10-28T19:38:48.160Z,7.80
2022-10-28T19:41:17.736Z,8.13
2022-10-28T19:43:46.041Z,6.97
2022-10-28T19:46:15.973Z,7.33
2022-10-28T19:48:46.336Z,7.30
2022-10-28T19:51:16.274Z,8.00
2022-10-28T19:53:50.470Z,6.80
2022-10-28T19:56:19.525Z,6.50
2022-10-28T19:58:48.201Z,6.40
2022-10-28T20:01:17.594Z,8.77
2022-10-28T20:03:49.164Z,8.73
2022-10-28T20:06:18.588Z,7.70
2022-10-28T20:08:48.185Z,6.60
2022-10-28T20:11:24.696Z,6.30
2022-10-28T20:13:55.284Z,6.73
2022-10-28T20:16:24.829Z,5.87
2022-10-28T20:18:52.556Z,5.13
2022-10-28T20:21:21.986Z,7.10
2022-10-28T20:23:54.047Z,6.33
2022-10-28T20:26:24.895Z,5.77
2022-10-28T20:28:52.814Z,6.40
2022-10-28T20:31:22.380Z,6.03
2022-10-28T20:33:52.715Z,6.00
2022-10-28T20:36:25.599Z,6.00
2022-10-28T20:38:57.607Z,6.23
2022-10-28T20:41:29.609Z,6.10
2022-10-28T20:43:59.574Z,5.40
2022-10-28T20:46:28.260Z,5.23
2022-10-28T20:48:57.096Z,5.80
2022-10-28T20:51:29.635Z,6.70
2022-10-28T20:53:58.398Z,5.87
2022-10-28T20:56:28.951Z,4.80
2022-10-28T20:58:58.228Z,5.07
2022-10-28T21:01:28.721Z,6.93
2022-10-28T21:04:00.614Z,5.73
2022-10-28T21:06:30.259Z,6.60
2022-10-28T21:08:59.459Z,5.50
2022-10-28T21:11:29.584Z,5.80
2022-10-28T21:13:59.951Z,7.27
2022-10-28T21:16:29.265Z,7.73
2022-10-28T21:18:57.625Z,7.00
2022-10-28T21:21:26.368Z,7.50
2022-10-28T21:23:54.623Z,6.23
2022-10-28T21:26:23.058Z,7.40
2022-10-28T21:28:53.623Z,6.13
2022-10-28T21:31:22.347Z,7.23
2022-10-28T21:36:24.259Z,6.80
2022-10-28T21:38:54.328Z,7.43
2022-10-28T21:41:23.297Z,6.23
2022-10-28T21:43:53.876Z,6.70
2022-10-28T21:46:24.227Z,8.00
2022-10-28T21:48:52.563Z,6.93
2022-10-28T21:51:20.400Z,6.60
2022-10-28T21:53:48.270Z,5.87
2022-10-28T21:56:19.331Z,7.20
2022-10-28T21:58:48.389Z,5.53
2022-10-28T22:01:20.878Z,6.70
2022-10-28T22:03:49.387Z,6.10
2022-10-28T22:06:17.345Z,6.67
2022-10-28T22:08:45.168Z,6.67
2022-10-28T22:11:15.827Z,5.73
2022-10-28T22:13:45.724Z,6.23
2022-10-28T22:16:15.507Z,7.43
2022-10-28T22:18:45.709Z,7.27
2022-10-28T22:21:15.383Z,8.27
2022-10-28T22:23:43.947Z,7.67
2022-10-28T22:26:13.557Z,7.77
2022-10-28T22:28:42.306Z,7.10
2022-10-28T22:31:12.020Z,7.60
2022-10-28T22:33:40.164Z,6.17
2022-10-28T22:36:11.797Z,6.93
2022-10-28T22:38:39.817Z,7.60
2022-10-28T22:41:12.422Z,7.73
2022-10-28T22:43:41.007Z,7.57
2022-10-28T22:46:10.094Z,6.77
2022-10-28T22:48:38.908Z,6.90
2022-10-28T22:51:06.889Z,6.90
2022-10-28T22:53:37.889Z,7.03
2022-10-28T22:56:06.563Z,7.50
2022-10-28T22:58:34.932Z,7.07
2022-10-28T23:01:07.306Z,6.47
2022-10-28T23:03:40.439Z,7.97
2022-10-28T23:06:10.715Z,7.20
2022-10-28T23:08:41.704Z,7.23
2022-10-28T23:11:10.636Z,6.80
2022-10-28T23:13:39.623Z,7.70
2022-10-28T23:16:09.498Z,7.80
2022-10-28T23:18:38.490Z,6.80
2022-10-28T23:21:07.995Z,7.30
2022-10-28T23:23:36.391Z,7.00
2022-10-28T23:26:06.468Z,8.13
2022-10-28T23:28:34.632Z,6.67
2022-10-28T23:31:03.789Z,8.80
2022-10-28T23:33:32.638Z,5.90
2022-10-28T23:36:02.055Z,6.70
2022-10-28T23:38:31.834Z,6.90
2022-10-28T23:41:01.215Z,7.23
2022-10-28T23:43:31.963Z,7.50
2022-10-28T23:46:00.960Z,6.63
2022-10-28T23:48:30.362Z,6.50
2022-10-28T23:50:58.431Z,7.17
2022-10-28T23:53:26.226Z,7.07
2022-10-28T23:55:54.741Z,6.10
2022-10-28T23:58:23.820Z,6.13
